createdAt,value
2018-06-01T00:00:38.793Z,92.54
2018-06-01T00:03:06.394Z,92.45
2018-06-01T00:05:34.070Z,92.62
2018-06-01T00:08:01.693Z,92.44
2018-06-01T00:10:29.354Z,92.69
2018-06-01T00:12:56.901Z,91.80
2018-06-01T00:15:24.575Z,91.08
2018-06-01T00:17:52.136Z,93.54
2018-06-01T00:20:19.809Z,95.20
2018-06-01T00:22:47.358Z,94.60
2018-06-01T00:25:15.141Z,95.11
2018-06-01T00:27:42.710Z,94.20
2018-06-01T00:30:10.268Z,94.93
2018-06-01T00:32:37.815Z,92.67
2018-06-01T00:35:05.469Z,90.72
2018-06-01T00:37:33.023Z,91.56
2018-06-01T00:40:00.580Z,92.07
2018-06-01T00:42:28.140Z,94.67
2018-06-01T00:44:55.802Z,94.02
2018-06-01T00:47:23.373Z,94.01
2018-06-01T00:49:51.033Z,92.96
2018-06-01T00:52:18.557Z,92.35
2018-06-01T00:54:58.086Z,92.64
2018-06-01T00:57:25.613Z,92.43
2018-06-01T00:59:53.169Z,92.91
2018-06-01T01:02:20.691Z,92.59
2018-06-01T01:04:48.263Z,94.38
2018-06-01T01:07:15.926Z,93.17
2018-06-01T01:09:43.448Z,93.24
2018-06-01T01:12:11.053Z,94.16
2018-06-01T01:14:38.579Z,92.33
2018-06-01T01:17:06.161Z,93.35
2018-06-01T01:19:33.717Z,94.88
2018-06-01T01:22:01.282Z,94.17
2018-06-01T01:24:28.810Z,93.06
2018-06-01T01:26:56.386Z,92.76
2018-06-01T01:29:23.914Z,93.23
2018-06-01T01:31:56.363Z,94.15
2018-06-01T01:34:23.887Z,94.99
2018-06-01T01:36:51.447Z,93.94
2018-06-01T01:39:19.019Z,94.38
2018-06-01T01:41:46.644Z,94.82
2018-06-01T01:44:14.229Z,94.64
2018-06-01T01:46:41.784Z,94.89
2018-06-01T01:49:09.330Z,94.34
2018-06-01T01:51:36.858Z,94.70
2018-06-01T01:54:04.402Z,91.74
2018-06-01T01:56:31.937Z,90.45
2018-06-01T01:58:59.592Z,91.88
2018-06-01T02:01:27.118Z,92.00
2018-06-01T02:03:54.674Z,91.90
2018-06-01T02:06:22.264Z,91.16
2018-06-01T02:08:49.928Z,91.32
2018-06-01T02:11:17.451Z,90.39
2018-06-01T02:13:45.958Z,92.81
2018-06-01T02:16:13.505Z,91.41
2018-06-01T02:18:41.057Z,92.38
2018-06-01T02:21:08.608Z,93.72
2018-06-01T02:23:36.212Z,91.87
2018-06-01T02:26:03.737Z,93.18
2018-06-01T02:28:31.326Z,93.50
2018-06-01T02:30:58.868Z,94.44
2018-06-01T02:33:26.446Z,93.76
2018-06-01T02:35:53.990Z,94.38
2018-06-01T02:38:21.524Z,95.39
2018-06-01T02:40:49.128Z,94.80
2018-06-01T02:43:16.686Z,94.68
2018-06-01T02:45:44.261Z,94.51
2018-06-01T02:48:11.802Z,93.81
2018-06-01T02:50:39.466Z,93.87
2018-06-01T02:53:07.035Z,92.97
2018-06-01T02:55:34.590Z,91.82
2018-06-01T02:58:02.121Z,93.20
2018-06-01T03:00:29.673Z,94.78
2018-06-01T03:02:57.263Z,93.79
2018-06-01T03:05:24.926Z,95.33
2018-06-01T03:07:52.495Z,95.01
2018-06-01T03:10:20.055Z,94.48
2018-06-01T03:12:47.632Z,94.47
2018-06-01T03:15:16.189Z,95.64
2018-06-01T03:17:43.830Z,94.38
2018-06-01T03:20:11.412Z,94.28
2018-06-01T03:22:38.963Z,95.27
2018-06-01T03:25:06.515Z,96.31
2018-06-01T03:27:34.067Z,96.02
2018-06-01T03:30:02.451Z,95.38
2018-06-01T03:32:30.018Z,95.35
2018-06-01T03:34:57.584Z,95.55
2018-06-01T03:37:25.180Z,95.99
2018-06-01T03:39:52.703Z,96.89
2018-06-01T03:42:20.255Z,98.21
2018-06-01T03:44:47.786Z,98.51
2018-06-01T03:47:16.510Z,98.72
2018-06-01T03:49:44.083Z,98.27
2018-06-01T03:52:11.618Z,97.87
2018-06-01T03:54:39.188Z,98.62
2018-06-01T03:57:06.753Z,99.23
2018-06-01T03:59:34.308Z,97.87
2018-06-01T04:02:01.846Z,97.52
2018-06-01T04:04:29.430Z,98.05
2018-06-01T04:06:57.278Z,98.12
2018-06-01T04:09:28.756Z,98.53
2018-06-01T04:11:56.306Z,97.47
2018-06-01T04:14:23.868Z,97.13
2018-06-01T04:16:51.410Z,96.79
2018-06-01T04:19:18.983Z,97.92
2018-06-01T04:21:46.542Z,97.23
2018-06-01T04:24:14.091Z,96.48
2018-06-01T04:26:41.671Z,97.38
2018-06-01T04:29:09.240Z,97.18
2018-06-01T04:31:36.779Z,95.59
2018-06-01T04:34:07.616Z,95.79
2018-06-01T04:36:35.276Z,95.90
2018-06-01T04:39:02.840Z,93.34
2018-06-01T04:41:30.399Z,93.90
2018-06-01T04:43:57.962Z,95.27
2018-06-01T04:46:25.509Z,94.69
2018-06-01T04:48:53.088Z,94.20
2018-06-01T04:51:20.743Z,94.05
2018-06-01T04:53:48.269Z,95.36
2018-06-01T04:56:16.670Z,92.56
2018-06-01T04:58:44.250Z,93.89
2018-06-01T05:01:11.801Z,94.31
2018-06-01T05:03:39.357Z,94.20
2018-06-01T05:06:06.917Z,94.03
2018-06-01T05:08:34.434Z,93.91
2018-06-01T05:11:02.037Z,96.18
2018-06-01T05:13:29.609Z,95.46
2018-06-01T05:15:57.163Z,95.31
2018-06-01T05:18:24.689Z,96.11
2018-06-01T05:20:52.275Z,95.88
2018-06-01T05:23:21.914Z,97.15
2018-06-01T05:25:52.871Z,95.80
2018-06-01T05:28:24.283Z,98.70
2018-06-01T05:30:55.283Z,98.60
2018-06-01T05:33:25.431Z,99.46
2018-06-01T05:35:53.153Z,100.00
2018-06-01T05:38:20.689Z,100.00
2018-06-01T05:40:49.203Z,100.00
2018-06-01T05:43:16.766Z,100.00
2018-06-01T05:45:44.362Z,100.00
2018-06-01T05:48:11.917Z,100.00
2018-06-01T05:50:39.442Z,100.00
2018-06-01T05:53:06.994Z,100.00
2018-06-01T05:55:34.549Z,100.00
2018-06-01T05:58:02.169Z,100.00
2018-06-01T06:00:29.853Z,100.00
2018-06-01T06:02:57.852Z,100.00
2018-06-01T06:05:25.541Z,100.00
2018-06-01T06:07:53.108Z,100.00
2018-06-01T06:10:20.669Z,100.00
2018-06-01T06:12:48.541Z,100.00
2018-06-01T06:15:16.098Z,100.00
2018-06-01T06:17:43.713Z,100.00
2018-06-01T06:20:11.519Z,100.00
2018-06-01T06:22:39.174Z,100.00
2018-06-01T06:25:06.839Z,100.00
2018-06-01T06:27:35.373Z,100.00
2018-06-01T06:30:04.329Z,100.00
2018-06-01T06:32:31.861Z,100.00
2018-06-01T06:34:59.432Z,100.00
2018-06-01T06:37:26.958Z,100.00
2018-06-01T06:39:54.514Z,100.00
2018-06-01T06:42:22.038Z,99.64
2018-06-01T06:44:49.588Z,99.57
2018-06-01T06:47:17.143Z,98.30
2018-06-01T06:49:44.717Z,99.48
2018-06-01T06:52:16.069Z,98.82
2018-06-01T06:54:44.999Z,98.68
2018-06-01T06:57:13.413Z,98.45
2018-06-01T06:59:41.007Z,99.36
2018-06-01T07:02:08.634Z,99.64
2018-06-01T07:04:36.157Z,99.70
2018-06-01T07:07:03.714Z,99.09
2018-06-01T07:09:31.264Z,98.89
2018-06-01T07:12:02.121Z,99.01
2018-06-01T07:14:34.711Z,98.19
2018-06-01T07:17:04.551Z,97.56
2018-06-01T07:19:34.769Z,98.15
2018-06-01T07:22:02.623Z,97.70
2018-06-01T07:24:32.778Z,98.30
2018-06-01T07:27:00.924Z,98.59
2018-06-01T07:29:28.460Z,98.54
2018-06-01T07:31:57.097Z,98.28
2018-06-01T07:34:24.730Z,98.42
2018-06-01T07:36:52.237Z,99.06
2018-06-01T07:39:19.843Z,98.17
2018-06-01T07:41:50.541Z,98.17
2018-06-01T07:44:18.109Z,99.13
2018-06-01T07:46:45.622Z,99.28
2018-06-01T07:49:13.174Z,98.23
2018-06-01T07:51:40.713Z,99.05
2018-06-01T07:54:08.728Z,99.60
2018-06-01T07:56:36.358Z,98.78
2018-06-01T07:59:03.930Z,98.90
2018-06-01T08:01:32.702Z,98.56
2018-06-01T08:04:00.362Z,98.32
2018-06-01T08:06:28.015Z,97.60
2018-06-01T08:08:55.635Z,97.98
2018-06-01T08:11:23.237Z,96.70
2018-06-01T08:13:50.898Z,97.14
2018-06-01T08:16:18.420Z,97.25
2018-06-01T08:18:46.025Z,96.24
2018-06-01T08:21:13.579Z,96.87
2018-06-01T08:23:41.238Z,97.66
2018-06-01T08:26:08.798Z,97.09
2018-06-01T08:28:36.321Z,97.01
2018-06-01T08:31:03.894Z,97.16
2018-06-01T08:33:31.487Z,95.94
2018-06-01T08:35:59.142Z,97.26
2018-06-01T08:38:28.789Z,97.22
2018-06-01T08:41:00.336Z,95.54
2018-06-01T08:43:30.511Z,96.78
2018-06-01T08:46:02.010Z,96.68
2018-06-01T08:48:30.018Z,96.25
2018-06-01T08:50:57.873Z,95.68
2018-06-01T08:53:25.667Z,96.73
2018-06-01T08:55:54.762Z,96.65
2018-06-01T08:58:24.277Z,96.64
2018-06-01T09:00:52.522Z,95.62
2018-06-01T09:03:22.876Z,95.41
2018-06-01T09:05:50.763Z,95.11
2018-06-01T09:08:19.477Z,96.41
2018-06-01T09:10:47.663Z,95.79
2018-06-01T09:13:17.218Z,96.00
2018-06-01T09:15:45.484Z,95.32
2018-06-01T09:18:15.244Z,95.21
2018-06-01T09:20:42.802Z,96.48
2018-06-01T09:25:47.600Z,95.38
2018-06-01T09:28:15.710Z,94.08
2018-06-01T09:30:44.935Z,94.53
2018-06-01T09:33:12.737Z,93.34
2018-06-01T09:35:41.450Z,93.09
2018-06-01T09:38:10.108Z,93.62
2018-06-01T09:40:41.260Z,91.75
2018-06-01T09:43:09.021Z,91.60
2018-06-01T09:45:38.931Z,90.94
2018-06-01T09:48:08.328Z,89.69
2018-06-01T09:50:36.380Z,88.58
2018-06-01T09:53:05.165Z,88.18
2018-06-01T09:55:35.022Z,88.70
2018-06-01T09:58:03.895Z,87.78
2018-06-01T10:00:39.417Z,88.34
2018-06-01T10:03:08.384Z,88.04
2018-06-01T10:05:36.039Z,87.97
2018-06-01T10:08:08.693Z,85.01
2018-06-01T10:10:36.774Z,88.00
2018-06-01T10:13:06.821Z,86.28
2018-06-01T10:15:35.642Z,85.11
2018-06-01T10:18:04.181Z,84.47
2018-06-01T10:20:36.199Z,85.69
2018-06-01T10:23:03.951Z,87.56
2018-06-01T10:25:37.053Z,85.52
2018-06-01T10:28:04.734Z,83.12
2018-06-01T10:30:34.537Z,84.79
2018-06-01T10:36:02.762Z,84.63
2018-06-01T10:38:32.521Z,85.24
2018-06-01T10:41:02.759Z,86.46
2018-06-01T10:43:32.259Z,89.67
2018-06-01T10:46:00.780Z,91.81
2018-06-01T10:48:28.481Z,97.12
2018-06-01T10:50:56.751Z,100.00
2018-06-01T10:53:25.458Z,100.00
2018-06-01T10:55:55.866Z,100.00
2018-06-01T10:58:27.636Z,100.00
2018-06-01T11:00:56.109Z,100.00
2018-06-01T11:03:24.718Z,100.00
2018-06-01T11:05:52.713Z,100.00
2018-06-01T11:08:22.085Z,100.00
2018-06-01T11:10:51.773Z,100.00
2018-06-01T11:13:19.676Z,100.00
2018-06-01T11:15:49.976Z,100.00
2018-06-01T11:18:18.165Z,100.00
2018-06-01T11:20:45.783Z,100.00
2018-06-01T11:23:16.028Z,100.00
2018-06-01T11:25:45.836Z,100.00
2018-06-01T11:28:16.782Z,100.00
2018-06-01T11:30:45.611Z,99.92
2018-06-01T11:33:13.246Z,100.00
2018-06-01T11:35:41.290Z,99.94
2018-06-01T11:38:10.742Z,100.00
2018-06-01T11:40:40.644Z,98.55
2018-06-01T11:43:10.215Z,95.92
2018-06-01T11:45:39.778Z,96.37
2018-06-01T11:48:11.230Z,96.37
2018-06-01T11:50:41.335Z,95.25
2018-06-01T11:53:09.178Z,94.35
2018-06-01T11:55:40.011Z,94.64
2018-06-01T11:58:09.296Z,97.15
2018-06-01T12:00:39.294Z,94.63
2018-06-01T12:03:08.142Z,95.11
2018-06-01T12:05:37.549Z,94.58
2018-06-01T12:08:06.601Z,93.95
2018-06-01T12:10:34.754Z,93.95
2018-06-01T12:13:05.143Z,93.19
2018-06-01T12:15:34.874Z,92.59
2018-06-01T12:18:02.584Z,92.46
2018-06-01T12:20:33.078Z,91.70
2018-06-01T12:23:03.437Z,90.31
2018-06-01T12:25:36.398Z,90.35
2018-06-01T12:28:07.186Z,91.49
2018-06-01T12:30:37.861Z,89.70
2018-06-01T12:33:07.353Z,88.80
2018-06-01T12:35:39.117Z,88.40
2018-06-01T12:38:08.323Z,90.76
2018-06-01T12:40:39.751Z,92.07
2018-06-01T12:43:09.779Z,89.62
2018-06-01T12:45:40.662Z,91.22
2018-06-01T12:48:11.510Z,90.27
2018-06-01T12:50:42.555Z,89.94
2018-06-01T12:53:13.583Z,90.40
2018-06-01T12:55:45.889Z,91.43
2018-06-01T12:58:16.616Z,88.06
2018-06-01T13:00:49.784Z,86.97
2018-06-01T13:03:20.326Z,87.57
2018-06-01T13:05:50.659Z,87.78
2018-06-01T13:08:21.721Z,86.84
2018-06-01T13:10:53.779Z,87.27
2018-06-01T13:13:24.257Z,87.08
2018-06-01T13:15:55.183Z,86.21
2018-06-01T13:18:26.335Z,87.12
2018-06-01T13:20:57.585Z,86.47
2018-06-01T13:23:28.963Z,83.69
2018-06-01T13:26:00.839Z,81.63
2018-06-01T13:28:31.987Z,79.33
2018-06-01T13:31:03.475Z,79.86
2018-06-01T13:33:35.910Z,79.33
2018-06-01T13:36:07.508Z,79.56
2018-06-01T13:38:38.871Z,77.74
2018-06-01T13:41:10.456Z,77.66
2018-06-01T13:43:41.127Z,79.02
2018-06-01T13:46:12.109Z,79.48
2018-06-01T13:48:43.507Z,77.51
2018-06-01T13:51:18.291Z,78.38
2018-06-01T13:53:47.725Z,79.24
2018-06-01T13:56:16.676Z,78.97
2018-06-01T13:58:47.714Z,80.15
2018-06-01T14:01:18.930Z,77.60
2018-06-01T14:03:48.420Z,77.90
2018-06-01T14:06:20.426Z,80.62
2018-06-01T14:08:51.780Z,78.84
2018-06-01T14:11:24.583Z,82.66
2018-06-01T14:13:55.778Z,80.97
2018-06-01T14:16:26.008Z,79.98
2018-06-01T14:18:57.611Z,81.23
2018-06-01T14:21:29.703Z,79.81
2018-06-01T14:24:00.557Z,77.06
2018-06-01T14:26:30.872Z,78.78
2018-06-01T14:29:01.991Z,77.50
2018-06-01T14:31:32.844Z,77.83
2018-06-01T14:34:04.046Z,78.87
2018-06-01T14:36:35.850Z,78.50
2018-06-01T14:39:07.012Z,77.80
2018-06-01T14:41:38.609Z,78.93
2018-06-01T14:44:09.427Z,76.32
2018-06-01T14:46:41.694Z,77.26
2018-06-01T14:49:12.977Z,77.95
2018-06-01T14:51:45.017Z,76.96
2018-06-01T14:54:15.993Z,76.38
2018-06-01T14:56:46.980Z,74.82
2018-06-01T14:59:18.018Z,75.20
2018-06-01T15:01:47.862Z,73.51
2018-06-01T15:04:17.747Z,76.11
2018-06-01T15:06:47.033Z,75.24
2018-06-01T15:09:17.789Z,73.79
2018-06-01T15:11:47.344Z,72.39
2018-06-01T15:14:18.285Z,72.26
2018-06-01T15:16:50.590Z,72.99
2018-06-01T15:19:21.586Z,74.71
2018-06-01T15:21:52.509Z,75.68
2018-06-01T15:24:22.247Z,74.42
2018-06-01T15:26:54.296Z,75.40
2018-06-01T15:29:25.707Z,76.52
2018-06-01T15:31:57.048Z,76.10
2018-06-01T15:34:29.506Z,77.31
2018-06-01T15:36:59.420Z,76.85
2018-06-01T15:39:29.326Z,76.08
2018-06-01T15:42:01.034Z,74.27
2018-06-01T15:44:31.769Z,73.35
2018-06-01T15:47:03.014Z,73.76
2018-06-01T15:49:34.189Z,74.51
2018-06-01T15:52:05.157Z,73.75
2018-06-01T15:54:35.648Z,74.02
2018-06-01T15:57:07.268Z,72.10
2018-06-01T15:59:38.971Z,73.33
2018-06-01T16:02:09.500Z,74.16
2018-06-01T16:04:40.025Z,74.75
2018-06-01T16:07:11.330Z,75.12
2018-06-01T16:09:41.883Z,74.06
2018-06-01T16:12:12.648Z,73.36
2018-06-01T16:14:43.271Z,72.79
2018-06-01T16:17:14.221Z,71.84
2018-06-01T16:19:44.613Z,69.54
2018-06-01T16:22:15.749Z,70.88
2018-06-01T16:24:45.769Z,69.75
2018-06-01T16:27:15.810Z,70.65
2018-06-01T16:29:46.804Z,66.75
2018-06-01T16:32:17.301Z,67.31
2018-06-01T16:34:48.106Z,64.98
2018-06-01T16:37:18.216Z,63.92
2018-06-01T16:39:49.799Z,65.70
2018-06-01T16:42:19.040Z,66.30
2018-06-01T16:44:53.928Z,66.88
2018-06-01T16:47:25.637Z,66.73
2018-06-01T16:49:55.719Z,69.79
2018-06-01T16:52:26.621Z,68.92
2018-06-01T16:54:57.826Z,70.01
2018-06-01T16:57:28.622Z,70.51
2018-06-01T17:00:00.153Z,71.74
2018-06-01T17:02:30.832Z,72.06
2018-06-01T17:05:01.787Z,73.32
2018-06-01T17:07:33.128Z,76.40
2018-06-01T17:10:04.604Z,82.63
2018-06-01T17:12:36.509Z,84.77
2018-06-01T17:15:07.692Z,86.95
2018-06-01T17:17:39.439Z,84.75
2018-06-01T17:20:07.170Z,86.75
2018-06-01T17:22:34.720Z,86.13
2018-06-01T17:25:02.347Z,88.57
2018-06-01T17:27:29.878Z,89.24
2018-06-01T17:29:57.858Z,89.66
2018-06-01T17:32:25.459Z,89.44
2018-06-01T17:34:53.286Z,89.00
2018-06-01T17:37:20.886Z,89.63
2018-06-01T17:39:48.438Z,88.47
2018-06-01T17:42:15.966Z,87.70
2018-06-01T17:44:43.506Z,88.31
2018-06-01T17:47:11.022Z,88.72
2018-06-01T17:49:38.644Z,88.33
2018-06-01T17:52:06.176Z,89.79
2018-06-01T17:54:34.229Z,88.22
2018-06-01T17:57:01.754Z,88.19
2018-06-01T17:59:29.495Z,85.29
2018-06-01T18:01:57.035Z,85.82
2018-06-01T18:04:24.611Z,88.17
2018-06-01T18:06:52.367Z,87.76
2018-06-01T18:09:19.890Z,85.52
2018-06-01T18:11:47.444Z,83.33
2018-06-01T18:14:14.993Z,82.78
2018-06-01T18:16:42.515Z,81.27
2018-06-01T18:19:10.151Z,79.87
2018-06-01T18:21:37.739Z,80.99
2018-06-01T18:24:05.322Z,81.78
2018-06-01T18:26:32.907Z,79.79
2018-06-01T18:29:00.550Z,82.99
2018-06-01T18:31:28.075Z,83.30
2018-06-01T18:33:56.409Z,82.28
2018-06-01T18:36:24.935Z,82.98
2018-06-01T18:38:52.594Z,83.93
2018-06-01T18:41:20.169Z,87.06
2018-06-01T18:43:47.721Z,85.92
2018-06-01T18:46:15.297Z,89.45
2018-06-01T18:48:42.824Z,90.13
2018-06-01T18:51:10.376Z,89.78
2018-06-01T18:53:39.227Z,91.38
2018-06-01T18:56:06.874Z,93.53
2018-06-01T18:58:34.406Z,94.27
2018-06-01T19:01:02.353Z,94.78
2018-06-01T19:03:30.700Z,94.80
2018-06-01T19:05:59.051Z,93.89
2018-06-01T19:08:26.637Z,94.19
2018-06-01T19:10:54.219Z,97.50
2018-06-01T19:13:21.745Z,94.57
2018-06-01T19:15:49.285Z,95.93
2018-06-01T19:18:16.826Z,96.53
2018-06-01T19:20:44.402Z,96.39
2018-06-01T19:23:12.674Z,95.39
2018-06-01T19:25:40.235Z,94.72
2018-06-01T19:28:07.778Z,94.47
2018-06-01T19:30:35.379Z,95.47
2018-06-01T19:33:02.912Z,95.73
2018-06-01T19:35:30.465Z,96.52
2018-06-01T19:37:59.211Z,95.66
2018-06-01T19:40:26.845Z,96.73
2018-06-01T19:42:54.370Z,95.73
2018-06-01T19:45:22.026Z,97.45
2018-06-01T19:47:49.584Z,99.95
2018-06-01T19:50:17.154Z,99.70
2018-06-01T19:52:44.703Z,99.38
2018-06-01T19:55:12.301Z,99.07
2018-06-01T19:57:39.934Z,100.00
2018-06-01T20:00:07.492Z,99.67
2018-06-01T20:02:35.057Z,99.50
2018-06-01T20:05:02.609Z,98.56
2018-06-01T20:07:30.288Z,96.64
2018-06-01T20:09:57.794Z,96.46
2018-06-01T20:12:25.354Z,95.24
2018-06-01T20:14:52.873Z,94.28
2018-06-01T20:17:20.512Z,95.55
2018-06-01T20:19:51.813Z,95.00
2018-06-01T20:22:19.619Z,94.28
2018-06-01T20:24:47.159Z,94.17
2018-06-01T20:27:14.737Z,94.35
2018-06-01T20:29:42.412Z,93.90
2018-06-01T20:32:09.967Z,94.64
2018-06-01T20:34:37.517Z,94.88
2018-06-01T20:37:05.075Z,94.40
2018-06-01T20:39:34.320Z,94.71
2018-06-01T20:42:01.938Z,93.94
2018-06-01T20:44:30.216Z,96.01
2018-06-01T20:46:57.880Z,96.01
2018-06-01T20:49:25.431Z,97.13
2018-06-01T20:51:52.999Z,97.01
2018-06-01T20:54:20.533Z,95.70
2018-06-01T20:56:48.108Z,95.83
2018-06-01T20:59:15.637Z,96.16
2018-06-01T21:01:43.241Z,97.11
2018-06-01T21:04:10.770Z,97.72
2018-06-01T21:06:38.321Z,97.99
2018-06-01T21:09:05.866Z,97.90
2018-06-01T21:11:33.418Z,98.74
2018-06-01T21:14:01.025Z,97.02
2018-06-01T21:16:28.604Z,98.83
2018-06-01T21:18:56.132Z,99.55
2018-06-01T21:21:23.763Z,97.83
2018-06-01T21:23:51.366Z,97.15
2018-06-01T21:26:18.925Z,97.30
2018-06-01T21:28:46.489Z,97.22
2018-06-01T21:31:14.020Z,98.44
2018-06-01T21:33:41.593Z,98.71
2018-06-01T21:36:09.174Z,98.26
2018-06-01T21:38:36.719Z,98.13
2018-06-01T21:41:04.281Z,99.00
2018-06-01T21:43:31.943Z,98.61
2018-06-01T21:46:00.479Z,97.53
2018-06-01T21:48:28.086Z,97.50
2018-06-01T21:50:55.609Z,97.91
2018-06-01T21:53:23.157Z,97.72
2018-06-01T21:55:50.763Z,97.49
2018-06-01T21:58:18.313Z,97.96
2018-06-01T22:00:45.894Z,100.00
2018-06-01T22:03:13.470Z,100.00
2018-06-01T22:05:40.989Z,99.01
2018-06-01T22:08:08.574Z,97.85
2018-06-01T22:10:36.096Z,97.49
2018-06-01T22:13:03.679Z,98.25
2018-06-01T22:15:31.204Z,98.63
2018-06-01T22:17:58.745Z,98.51
2018-06-01T22:20:26.254Z,98.59
2018-06-01T22:22:53.814Z,98.66
2018-06-01T22:25:21.337Z,98.43
2018-06-01T22:27:48.910Z,97.80
2018-06-01T22:30:16.495Z,98.64
2018-06-01T22:32:44.048Z,98.61
2018-06-01T22:35:13.469Z,98.41
2018-06-01T22:37:41.023Z,98.56
2018-06-01T22:40:08.676Z,99.25
2018-06-01T22:42:36.249Z,98.43
2018-06-01T22:45:03.801Z,99.08
2018-06-01T22:47:31.458Z,98.68
2018-06-01T22:49:59.029Z,98.84
2018-06-01T22:52:26.608Z,98.88
2018-06-01T22:54:54.141Z,99.56
2018-06-01T22:57:21.706Z,99.17
2018-06-01T22:59:49.269Z,99.46
2018-06-01T23:02:16.793Z,99.29
2018-06-01T23:04:44.347Z,98.28
2018-06-01T23:07:11.872Z,97.38
2018-06-01T23:09:39.502Z,97.84
2018-06-01T23:12:07.053Z,98.02
2018-06-01T23:14:34.634Z,98.13
2018-06-01T23:17:02.170Z,98.23
2018-06-01T23:19:29.736Z,98.14
2018-06-01T23:21:57.290Z,98.59
2018-06-01T23:24:24.863Z,99.23
2018-06-01T23:26:52.389Z,98.98
2018-06-01T23:29:19.968Z,98.28
2018-06-01T23:31:47.532Z,98.50
2018-06-01T23:34:15.097Z,98.57
2018-06-01T23:36:42.648Z,98.81
2018-06-01T23:39:10.422Z,98.20
2018-06-01T23:41:37.981Z,98.90
2018-06-01T23:44:05.532Z,98.33
2018-06-01T23:46:33.057Z,99.18
2018-06-01T23:49:01.238Z,98.36
2018-06-01T23:51:28.787Z,98.33
2018-06-01T23:53:56.339Z,98.58
2018-06-01T23:56:23.892Z,98.21
2018-06-01T23:58:51.445Z,97.76
